PWSweather.com
Personal Weather Stations
Station Observations
KKSTOPEK1
South Central , Topeka, KS 66611

South Central Topeka, KS 66611

Lat: 39.03, Lon: -95.71

Elevation: 945

Station Type: Davis Vantage Vue

http://tallgrasspixels.net/weather/index.php

High Low Average
Temperature 57.0°F13.9°C 33.7°F0.9°C 47.6°F8.7°C
Dew Point 55.8°F13.2°C 27.7°F-2.4°C 38.4°F3.6°C
Winds 6.0 mph 9.7 kmh Calm Calm 3.0 mph SSW4.8 kmh SSW
Wind Gusts 23.0 mph37.0 kmh -- 10.0 mph16.1 kmh
Humidity 96% 46% 72%
Pressure 30.21 in1023.0 mb 29.32 in992.9 mb -
Precipitation 0.01 in0.3 mm - -
Hour Temp Dew Point Humidity Winds Wind Gusts Pressure Precip Precip Rate Daily Precip Total
12:00 AM 53.5°F11.9°C 51.8°F11.0°C 94% Calm Calm -- 29.34 in993.6 mb 0.00 in0.0 mm 0.00 in0.0 mm 0.00 in0.0 mm
12:10 AM 54.2°F12.3°C 52.8°F11.6°C 95% Calm Calm 2.0 mph3.2 kmh 29.33 in993.2 mb 0.00 in0.0 mm 0.00 in0.0 mm 0.00 in0.0 mm
12:20 AM 55.0°F12.8°C 53.0°F11.7°C 93% Calm Calm 2.0 mph3.2 kmh 29.33 in993.2 mb 0.00 in0.0 mm 0.00 in0.0 mm 0.00 in0.0 mm
12:30 AM 56.2°F13.4°C 53.6°F12.0°C 91% Calm Calm 5.0 mph8.0 kmh 29.32 in992.9 mb 0.00 in0.0 mm 0.00 in0.0 mm 0.00 in0.0 mm
12:40 AM 56.5°F13.6°C 53.6°F12.0°C 90% 2.0 mph NNE3.2 kmh NNE 7.0 mph11.3 kmh 29.32 in992.9 mb 0.00 in0.0 mm 0.00 in0.0 mm 0.00 in0.0 mm
12:50 AM 56.1°F13.4°C 53.2°F11.8°C 90% 2.0 mph NE3.2 kmh NE 8.0 mph12.9 kmh 29.33 in993.2 mb 0.00 in0.0 mm 0.00 in0.0 mm 0.00 in0.0 mm
01:00 AM 55.5°F13.1°C 53.2°F11.8°C 92% 2.0 mph NE3.2 kmh NE 11.0 mph17.7 kmh 29.33 in993.2 mb 0.00 in0.0 mm 0.00 in0.0 mm 0.00 in0.0 mm
01:10 AM 55.2°F12.9°C 53.2°F11.8°C 93% 3.0 mph NNE4.8 kmh NNE 7.0 mph11.3 kmh 29.34 in993.6 mb 0.00 in0.0 mm 0.00 in0.0 mm 0.00 in0.0 mm
01:20 AM 55.2°F12.9°C 53.5°F11.9°C 94% 2.0 mph NNE3.2 kmh NNE 8.0 mph12.9 kmh 29.34 in993.6 mb 0.00 in0.0 mm 0.00 in0.0 mm 0.00 in0.0 mm
01:30 AM 55.3°F12.9°C 53.9°F12.2°C 95% 2.0 mph N3.2 kmh N 7.0 mph11.3 kmh 29.33 in993.2 mb 0.00 in0.0 mm 0.00 in0.0 mm 0.00 in0.0 mm
01:40 AM 55.4°F13.0°C 54.0°F12.2°C 95% 2.0 mph NNE3.2 kmh NNE 6.0 mph9.7 kmh 29.34 in993.6 mb 0.00 in0.0 mm 0.00 in0.0 mm 0.00 in0.0 mm
01:50 AM 55.7°F13.2°C 54.6°F12.6°C 96% 3.0 mph NNE4.8 kmh NNE 7.0 mph11.3 kmh 29.34 in993.6 mb 0.00 in0.0 mm 0.00 in0.0 mm 0.00 in0.0 mm
02:00 AM 56.1°F13.4°C 55.0°F12.8°C 96% 4.0 mph NNE6.4 kmh NNE 16.0 mph25.7 kmh 29.34 in993.6 mb 0.00 in0.0 mm 0.00 in0.0 mm 0.00 in0.0 mm
02:10 AM 56.5°F13.6°C 55.4°F13.0°C 96% 4.0 mph NNE6.4 kmh NNE 12.0 mph19.3 kmh 29.34 in993.6 mb 0.00 in0.0 mm 0.00 in0.0 mm 0.00 in0.0 mm
02:20 AM 56.9°F13.8°C 55.8°F13.2°C 96% 6.0 mph NNE9.7 kmh NNE 15.0 mph24.1 kmh 29.34 in993.6 mb 0.00 in0.0 mm 0.00 in0.0 mm 0.00 in0.0 mm
02:30 AM 57.0°F13.9°C 55.6°F13.1°C 95% 5.0 mph N8.0 kmh N 17.0 mph27.4 kmh 29.35 in993.9 mb 0.00 in0.0 mm 0.00 in0.0 mm 0.00 in0.0 mm
02:40 AM 56.5°F13.6°C 54.8°F12.7°C 94% 6.0 mph NNE9.7 kmh NNE 15.0 mph24.1 kmh 29.36 in994.2 mb 0.00 in0.0 mm 0.00 in0.0 mm 0.00 in0.0 mm
02:50 AM 56.0°F13.3°C 54.3°F12.4°C 94% 5.0 mph NNE8.0 kmh NNE 16.0 mph25.7 kmh 29.36 in994.2 mb 0.00 in0.0 mm 0.00 in0.0 mm 0.00 in0.0 mm
03:00 AM 55.7°F13.2°C 53.7°F12.1°C 93% 5.0 mph N8.0 kmh N 17.0 mph27.4 kmh 29.38 in994.9 mb 0.00 in0.0 mm 0.00 in0.0 mm 0.00 in0.0 mm
03:10 AM 54.7°F12.6°C 52.7°F11.5°C 93% 5.0 mph NNE8.0 kmh NNE 15.0 mph24.1 kmh 29.39 in995.3 mb 0.00 in0.0 mm 0.00 in0.0 mm 0.00 in0.0 mm
03:20 AM 54.0°F12.2°C 52.0°F11.1°C 93% 5.0 mph NNE8.0 kmh NNE 16.0 mph25.7 kmh 29.40 in995.6 mb 0.00 in0.0 mm 0.00 in0.0 mm 0.00 in0.0 mm
03:30 AM 53.5°F11.9°C 51.2°F10.7°C 92% 6.0 mph N9.7 kmh N 17.0 mph27.4 kmh 29.42 in996.3 mb 0.00 in0.0 mm 0.00 in0.0 mm 0.00 in0.0 mm
03:40 AM 53.0°F11.7°C 50.7°F10.4°C 92% 5.0 mph NNE8.0 kmh NNE 14.0 mph22.5 kmh 29.44 in997.0 mb 0.00 in0.0 mm 0.00 in0.0 mm 0.00 in0.0 mm
03:50 AM 52.7°F11.5°C 50.1°F10.1°C 91% 6.0 mph NNE9.7 kmh NNE 21.0 mph33.8 kmh 29.44 in997.0 mb 0.00 in0.0 mm 0.00 in0.0 mm 0.00 in0.0 mm
04:00 AM 52.6°F11.4°C 49.8°F9.9°C 90% 6.0 mph NNE9.7 kmh NNE 18.0 mph29.0 kmh 29.45 in997.3 mb 0.00 in0.0 mm 0.00 in0.0 mm 0.00 in0.0 mm
04:10 AM 52.4°F11.3°C 49.8°F9.9°C 91% 5.0 mph NE8.0 kmh NE 12.0 mph19.3 kmh 29.47 in998.0 mb 0.00 in0.0 mm 0.00 in0.0 mm 0.00 in0.0 mm
04:20 AM 52.3°F11.3°C 49.2°F9.6°C 89% 4.0 mph N6.4 kmh N 16.0 mph25.7 kmh 29.46 in997.6 mb 0.00 in0.0 mm 0.00 in0.0 mm 0.00 in0.0 mm
04:30 AM 52.0°F11.1°C 48.3°F9.1°C 87% 6.0 mph NNE9.7 kmh NNE 18.0 mph29.0 kmh 29.47 in998.0 mb 0.00 in0.0 mm 0.00 in0.0 mm 0.00 in0.0 mm
04:40 AM 51.7°F10.9°C 48.3°F9.1°C 88% 5.0 mph N8.0 kmh N 16.0 mph25.7 kmh 29.49 in998.6 mb 0.00 in0.0 mm 0.00 in0.0 mm 0.00 in0.0 mm
04:50 AM 51.2°F10.7°C 46.8°F8.2°C 85% 4.0 mph N6.4 kmh N 13.0 mph20.9 kmh 29.51 in999.3 mb 0.00 in0.0 mm 0.00 in0.0 mm 0.00 in0.0 mm
05:00 AM 50.6°F10.3°C 45.9°F7.7°C 84% 5.0 mph N8.0 kmh N 17.0 mph27.4 kmh 29.52 in999.7 mb 0.00 in0.0 mm 0.00 in0.0 mm 0.00 in0.0 mm
05:10 AM 50.1°F10.1°C 45.1°F7.3°C 83% 4.0 mph N6.4 kmh N 11.0 mph17.7 kmh 29.53 in1000.0 mb 0.00 in0.0 mm 0.00 in0.0 mm 0.00 in0.0 mm
05:20 AM 49.2°F9.6°C 43.6°F6.4°C 81% 4.0 mph N6.4 kmh N 22.0 mph35.4 kmh 29.55 in1000.7 mb 0.00 in0.0 mm 0.00 in0.0 mm 0.00 in0.0 mm
05:30 AM 48.7°F9.3°C 43.5°F6.4°C 82% 6.0 mph N9.7 kmh N 14.0 mph22.5 kmh 29.57 in1001.4 mb 0.00 in0.0 mm 0.00 in0.0 mm 0.00 in0.0 mm
05:40 AM 48.4°F9.1°C 43.5°F6.4°C 83% 5.0 mph NNW8.0 kmh NNW 15.0 mph24.1 kmh 29.58 in1001.7 mb 0.00 in0.0 mm 0.00 in0.0 mm 0.00 in0.0 mm
05:50 AM 48.2°F9.0°C 43.6°F6.4°C 84% 4.0 mph N6.4 kmh N 23.0 mph37.0 kmh 29.58 in1001.7 mb 0.00 in0.0 mm 0.00 in0.0 mm 0.00 in0.0 mm
06:00 AM 47.6°F8.7°C 42.7°F5.9°C 83% 4.0 mph N6.4 kmh N 17.0 mph27.4 kmh 29.59 in1002.0 mb 0.00 in0.0 mm 0.00 in0.0 mm 0.00 in0.0 mm
06:10 AM 46.9°F8.3°C 42.3°F5.7°C 84% 5.0 mph N8.0 kmh N 21.0 mph33.8 kmh 29.60 in1002.4 mb 0.00 in0.0 mm 0.00 in0.0 mm 0.00 in0.0 mm
06:20 AM 46.3°F7.9°C 42.0°F5.6°C 85% 6.0 mph N9.7 kmh N 16.0 mph25.7 kmh 29.62 in1003.0 mb 0.00 in0.0 mm 0.00 in0.0 mm 0.00 in0.0 mm
06:30 AM 45.8°F7.7°C 41.9°F5.5°C 86% 5.0 mph N8.0 kmh N 17.0 mph27.4 kmh 29.63 in1003.4 mb 0.00 in0.0 mm 0.00 in0.0 mm 0.00 in0.0 mm
06:40 AM 45.6°F7.6°C 41.7°F5.4°C 86% 5.0 mph N8.0 kmh N 14.0 mph22.5 kmh 29.64 in1003.7 mb 0.00 in0.0 mm 0.00 in0.0 mm 0.00 in0.0 mm
06:50 AM 45.4°F7.4°C 41.5°F5.3°C 86% 5.0 mph N8.0 kmh N 17.0 mph27.4 kmh 29.65 in1004.1 mb 0.00 in0.0 mm 0.00 in0.0 mm 0.00 in0.0 mm
07:00 AM 45.3°F7.4°C 41.4°F5.2°C 86% 4.0 mph N6.4 kmh N 14.0 mph22.5 kmh 29.66 in1004.4 mb 0.00 in0.0 mm 0.00 in0.0 mm 0.00 in0.0 mm
07:10 AM 45.1°F7.3°C 40.9°F4.9°C 85% 5.0 mph N8.0 kmh N 20.0 mph32.2 kmh 29.67 in1004.7 mb 0.00 in0.0 mm 0.00 in0.0 mm 0.00 in0.0 mm
07:20 AM 45.1°F7.3°C 41.2°F5.1°C 86% 5.0 mph N8.0 kmh N 16.0 mph25.7 kmh 29.69 in1005.4 mb 0.00 in0.0 mm 0.00 in0.0 mm 0.00 in0.0 mm
07:30 AM 45.0°F7.2°C 41.1°F5.1°C 86% 4.0 mph N6.4 kmh N 15.0 mph24.1 kmh 29.70 in1005.8 mb 0.00 in0.0 mm 0.00 in0.0 mm 0.00 in0.0 mm
07:40 AM 44.7°F7.1°C 40.8°F4.9°C 86% 4.0 mph N6.4 kmh N 21.0 mph33.8 kmh 29.71 in1006.1 mb 0.00 in0.0 mm 0.00 in0.0 mm 0.00 in0.0 mm
07:50 AM 44.3°F6.8°C 41.0°F5.0°C 88% 4.0 mph N6.4 kmh N 11.0 mph17.7 kmh 29.72 in1006.4 mb 0.00 in0.0 mm 0.00 in0.0 mm 0.00 in0.0 mm
08:00 AM 44.0°F6.7°C 40.7°F4.8°C 88% 4.0 mph N6.4 kmh N 13.0 mph20.9 kmh 29.72 in1006.4 mb 0.00 in0.0 mm 0.00 in0.0 mm 0.00 in0.0 mm
08:10 AM 43.7°F6.5°C 40.1°F4.5°C 87% 3.0 mph N4.8 kmh N 11.0 mph17.7 kmh 29.74 in1007.1 mb 0.00 in0.0 mm 0.00 in0.0 mm 0.00 in0.0 mm
08:20 AM 43.7°F6.5°C 39.8°F4.3°C 86% 3.0 mph NNE4.8 kmh NNE 15.0 mph24.1 kmh 29.75 in1007.5 mb 0.00 in0.0 mm 0.00 in0.0 mm 0.00 in0.0 mm
08:30 AM 43.8°F6.6°C 39.6°F4.2°C 85% 4.0 mph N6.4 kmh N 9.0 mph14.5 kmh 29.77 in1008.1 mb 0.00 in0.0 mm 0.00 in0.0 mm 0.00 in0.0 mm
08:40 AM 43.9°F6.6°C 39.4°F4.1°C 84% 3.0 mph NW4.8 kmh NW 9.0 mph14.5 kmh 29.79 in1008.8 mb 0.00 in0.0 mm 0.00 in0.0 mm 0.00 in0.0 mm
08:50 AM 43.9°F6.6°C 39.4°F4.1°C 84% 3.0 mph WNW4.8 kmh WNW 9.0 mph14.5 kmh 29.79 in1008.8 mb 0.00 in0.0 mm 0.00 in0.0 mm 0.00 in0.0 mm
09:00 AM 43.9°F6.6°C 39.4°F4.1°C 84% 2.0 mph WNW3.2 kmh WNW 12.0 mph19.3 kmh 29.80 in1009.1 mb 0.00 in0.0 mm 0.00 in0.0 mm 0.00 in0.0 mm
09:10 AM 44.0°F6.7°C 39.2°F4.0°C 83% 3.0 mph NW4.8 kmh NW 14.0 mph22.5 kmh 29.81 in1009.5 mb 0.00 in0.0 mm 0.00 in0.0 mm 0.00 in0.0 mm
09:20 AM 43.9°F6.6°C 38.8°F3.8°C 82% 2.0 mph WNW3.2 kmh WNW 12.0 mph19.3 kmh 29.82 in1009.8 mb 0.00 in0.0 mm 0.00 in0.0 mm 0.00 in0.0 mm
09:30 AM 43.8°F6.6°C 38.3°F3.5°C 81% 3.0 mph NW4.8 kmh NW 11.0 mph17.7 kmh 29.83 in1010.2 mb 0.00 in0.0 mm 0.00 in0.0 mm 0.00 in0.0 mm
09:40 AM 43.8°F6.6°C 37.7°F3.2°C 79% 3.0 mph NW4.8 kmh NW 9.0 mph14.5 kmh 29.84 in1010.5 mb 0.00 in0.0 mm 0.00 in0.0 mm 0.00 in0.0 mm
09:50 AM 43.9°F6.6°C 37.2°F2.9°C 77% 3.0 mph NW4.8 kmh NW 14.0 mph22.5 kmh 29.85 in1010.8 mb 0.00 in0.0 mm 0.00 in0.0 mm 0.00 in0.0 mm
10:00 AM 43.9°F6.6°C 36.1°F2.3°C 74% 4.0 mph NW6.4 kmh NW 15.0 mph24.1 kmh 29.85 in1010.8 mb 0.00 in0.0 mm 0.00 in0.0 mm 0.00 in0.0 mm
10:10 AM 44.1°F6.7°C 36.0°F2.2°C 73% 3.0 mph N4.8 kmh N 10.0 mph16.1 kmh 29.86 in1011.2 mb 0.00 in0.0 mm 0.00 in0.0 mm 0.00 in0.0 mm
10:20 AM 44.2°F6.8°C 35.7°F2.1°C 72% 2.0 mph NW3.2 kmh NW 14.0 mph22.5 kmh 29.86 in1011.2 mb 0.00 in0.0 mm 0.00 in0.0 mm 0.00 in0.0 mm
10:30 AM 44.1°F6.7°C 34.9°F1.6°C 70% 4.0 mph NW6.4 kmh NW 13.0 mph20.9 kmh 29.88 in1011.9 mb 0.00 in0.0 mm 0.00 in0.0 mm 0.00 in0.0 mm
10:40 AM 44.4°F6.9°C 33.7°F0.9°C 66% 3.0 mph NW4.8 kmh NW 10.0 mph16.1 kmh 29.89 in1012.2 mb 0.00 in0.0 mm 0.00 in0.0 mm 0.00 in0.0 mm
10:50 AM 44.8°F7.1°C 33.7°F0.9°C 65% 3.0 mph NW4.8 kmh NW 10.0 mph16.1 kmh 29.90 in1012.5 mb 0.00 in0.0 mm 0.00 in0.0 mm 0.00 in0.0 mm
11:00 AM 45.2°F7.3°C 32.9°F0.5°C 62% 3.0 mph NW4.8 kmh NW 15.0 mph24.1 kmh 29.91 in1012.9 mb 0.00 in0.0 mm 0.00 in0.0 mm 0.00 in0.0 mm
11:10 AM 45.6°F7.6°C 31.7°F-0.2°C 58% 4.0 mph NW6.4 kmh NW 17.0 mph27.4 kmh 29.91 in1012.9 mb 0.00 in0.0 mm 0.00 in0.0 mm 0.00 in0.0 mm
11:20 AM 46.0°F7.8°C 31.2°F-0.4°C 56% 4.0 mph NW6.4 kmh NW 14.0 mph22.5 kmh 29.92 in1013.2 mb 0.00 in0.0 mm 0.00 in0.0 mm 0.00 in0.0 mm
11:30 AM 46.4°F8.0°C 30.2°F-1.0°C 53% 4.0 mph NW6.4 kmh NW 11.0 mph17.7 kmh 29.93 in1013.5 mb 0.00 in0.0 mm 0.00 in0.0 mm 0.00 in0.0 mm
11:40 AM 46.5°F8.1°C 31.6°F-0.2°C 56% 4.0 mph NW6.4 kmh NW 11.0 mph17.7 kmh 29.93 in1013.5 mb 0.00 in0.0 mm 0.00 in0.0 mm 0.00 in0.0 mm
11:50 AM 46.8°F8.2°C 33.6°F0.9°C 60% 4.0 mph NW6.4 kmh NW 10.0 mph16.1 kmh 29.93 in1013.5 mb 0.00 in0.0 mm 0.00 in0.0 mm 0.00 in0.0 mm
12:00 PM 47.4°F8.6°C 35.4°F1.9°C 63% 3.0 mph NW4.8 kmh NW 8.0 mph12.9 kmh 29.93 in1013.5 mb 0.00 in0.0 mm 0.00 in0.0 mm 0.00 in0.0 mm
12:10 PM 47.7°F8.7°C 35.7°F2.1°C 63% 3.0 mph NW4.8 kmh NW 10.0 mph16.1 kmh 29.94 in1013.9 mb 0.00 in0.0 mm 0.00 in0.0 mm 0.00 in0.0 mm
12:20 PM 47.9°F8.8°C 36.7°F2.6°C 65% 3.0 mph NW4.8 kmh NW 11.0 mph17.7 kmh 29.95 in1014.2 mb 0.00 in0.0 mm 0.00 in0.0 mm 0.00 in0.0 mm
12:30 PM 48.3°F9.1°C 37.5°F3.1°C 66% 3.0 mph NW4.8 kmh NW 8.0 mph12.9 kmh 29.95 in1014.2 mb 0.00 in0.0 mm 0.00 in0.0 mm 0.00 in0.0 mm
12:40 PM 48.7°F9.3°C 38.2°F3.4°C 67% 3.0 mph NW4.8 kmh NW 12.0 mph19.3 kmh 29.95 in1014.2 mb 0.00 in0.0 mm 0.00 in0.0 mm 0.00 in0.0 mm
12:50 PM 49.3°F9.6°C 38.4°F3.6°C 66% 3.0 mph NW4.8 kmh NW 15.0 mph24.1 kmh 29.95 in1014.2 mb 0.00 in0.0 mm 0.00 in0.0 mm 0.00 in0.0 mm
01:00 PM 49.9°F9.9°C 39.0°F3.9°C 66% 4.0 mph NW6.4 kmh NW 13.0 mph20.9 kmh 29.95 in1014.2 mb 0.00 in0.0 mm 0.00 in0.0 mm 0.00 in0.0 mm
01:10 PM 50.3°F10.2°C 39.0°F3.9°C 65% 4.0 mph NW6.4 kmh NW 8.0 mph12.9 kmh 29.96 in1014.6 mb 0.00 in0.0 mm 0.00 in0.0 mm 0.00 in0.0 mm
01:20 PM 50.1°F10.1°C 39.2°F4.0°C 66% 4.0 mph NW6.4 kmh NW 14.0 mph22.5 kmh 29.96 in1014.6 mb 0.00 in0.0 mm 0.00 in0.0 mm 0.00 in0.0 mm
01:30 PM 50.8°F10.4°C 39.5°F4.2°C 65% 4.0 mph NNW6.4 kmh NNW 12.0 mph19.3 kmh 29.96 in1014.6 mb 0.00 in0.0 mm 0.00 in0.0 mm 0.00 in0.0 mm
01:40 PM 51.8°F11.0°C 39.2°F4.0°C 62% 4.0 mph NW6.4 kmh NW 11.0 mph17.7 kmh 29.96 in1014.6 mb 0.00 in0.0 mm 0.00 in0.0 mm 0.00 in0.0 mm
01:50 PM 51.6°F10.9°C 39.0°F3.9°C 62% 4.0 mph NNW6.4 kmh NNW 16.0 mph25.7 kmh 29.97 in1014.9 mb 0.00 in0.0 mm 0.00 in0.0 mm 0.00 in0.0 mm
02:00 PM 52.2°F11.2°C 38.7°F3.7°C 60% 5.0 mph N8.0 kmh N 14.0 mph22.5 kmh 29.97 in1014.9 mb 0.00 in0.0 mm 0.00 in0.0 mm 0.00 in0.0 mm
02:10 PM 52.4°F11.3°C 38.5°F3.6°C 59% 4.0 mph N6.4 kmh N 15.0 mph24.1 kmh 29.97 in1014.9 mb 0.00 in0.0 mm 0.00 in0.0 mm 0.00 in0.0 mm
02:20 PM 52.7°F11.5°C 37.0°F2.8°C 55% 4.0 mph NW6.4 kmh NW 11.0 mph17.7 kmh 29.98 in1015.2 mb 0.00 in0.0 mm 0.00 in0.0 mm 0.00 in0.0 mm
02:30 PM 53.2°F11.8°C 36.5°F2.5°C 53% 3.0 mph N4.8 kmh N 11.0 mph17.7 kmh 29.98 in1015.2 mb 0.00 in0.0 mm 0.00 in0.0 mm 0.00 in0.0 mm
02:40 PM 53.7°F12.1°C 35.0°F1.7°C 49% 4.0 mph NNW6.4 kmh NNW 12.0 mph19.3 kmh 29.97 in1014.9 mb 0.00 in0.0 mm 0.00 in0.0 mm 0.00 in0.0 mm
02:50 PM 53.3°F11.8°C 35.6°F2.0°C 51% 4.0 mph NW6.4 kmh NW 11.0 mph17.7 kmh 29.98 in1015.2 mb 0.00 in0.0 mm 0.00 in0.0 mm 0.00 in0.0 mm
03:00 PM 54.0°F12.2°C 35.3°F1.8°C 49% 4.0 mph NNW6.4 kmh NNW 13.0 mph20.9 kmh 29.99 in1015.6 mb 0.00 in0.0 mm 0.00 in0.0 mm 0.00 in0.0 mm
03:10 PM 53.2°F11.8°C 35.0°F1.7°C 50% 4.0 mph NNW6.4 kmh NNW 9.0 mph14.5 kmh 29.99 in1015.6 mb 0.00 in0.0 mm 0.00 in0.0 mm 0.00 in0.0 mm
03:20 PM 53.5°F11.9°C 33.2°F0.7°C 46% 3.0 mph N4.8 kmh N 20.0 mph32.2 kmh 30.00 in1015.9 mb 0.00 in0.0 mm 0.00 in0.0 mm 0.00 in0.0 mm
03:30 PM 53.3°F11.8°C 33.0°F0.6°C 46% 4.0 mph NNW6.4 kmh NNW 12.0 mph19.3 kmh 30.00 in1015.9 mb 0.00 in0.0 mm 0.00 in0.0 mm 0.00 in0.0 mm
03:40 PM 52.8°F11.6°C 32.6°F0.3°C 46% 4.0 mph N6.4 kmh N 14.0 mph22.5 kmh 30.00 in1015.9 mb 0.00 in0.0 mm 0.00 in0.0 mm 0.00 in0.0 mm
03:50 PM 52.2°F11.2°C 33.1°F0.6°C 48% 3.0 mph NW4.8 kmh NW 9.0 mph14.5 kmh 30.01 in1016.3 mb 0.00 in0.0 mm 0.00 in0.0 mm 0.00 in0.0 mm
04:00 PM 52.0°F11.1°C 32.4°F0.2°C 47% 3.0 mph WNW4.8 kmh WNW 11.0 mph17.7 kmh 30.02 in1016.6 mb 0.00 in0.0 mm 0.00 in0.0 mm 0.00 in0.0 mm
04:10 PM 51.6°F10.9°C 32.0°F0.0°C 47% 3.0 mph NNW4.8 kmh NNW 9.0 mph14.5 kmh 30.02 in1016.6 mb 0.00 in0.0 mm 0.00 in0.0 mm 0.00 in0.0 mm
04:20 PM 51.4°F10.8°C 31.8°F-0.1°C 47% 3.0 mph N4.8 kmh N 8.0 mph12.9 kmh 30.02 in1016.6 mb 0.00 in0.0 mm 0.00 in0.0 mm 0.00 in0.0 mm
04:30 PM 51.2°F10.7°C 31.6°F-0.2°C 47% 2.0 mph NW3.2 kmh NW 6.0 mph9.7 kmh 30.03 in1016.9 mb 0.00 in0.0 mm 0.00 in0.0 mm 0.00 in0.0 mm
04:40 PM 51.0°F10.6°C 32.0°F0.0°C 48% 2.0 mph NNW3.2 kmh NNW 8.0 mph12.9 kmh 30.04 in1017.3 mb 0.00 in0.0 mm 0.00 in0.0 mm 0.00 in0.0 mm
04:50 PM 50.8°F10.4°C 31.3°F-0.4°C 47% 3.0 mph NW4.8 kmh NW 12.0 mph19.3 kmh 30.04 in1017.3 mb 0.00 in0.0 mm 0.00 in0.0 mm 0.00 in0.0 mm
05:00 PM 50.5°F10.3°C 31.5°F-0.3°C 48% 3.0 mph NW4.8 kmh NW 11.0 mph17.7 kmh 30.05 in1017.6 mb 0.00 in0.0 mm 0.00 in0.0 mm 0.00 in0.0 mm
05:10 PM 50.0°F10.0°C 31.6°F-0.2°C 49% 2.0 mph NNW3.2 kmh NNW 9.0 mph14.5 kmh 30.05 in1017.6 mb 0.00 in0.0 mm 0.00 in0.0 mm 0.00 in0.0 mm
05:20 PM 49.5°F9.7°C 31.6°F-0.2°C 50% 1.0 mph NW1.6 kmh NW 5.0 mph8.0 kmh 30.06 in1017.9 mb 0.00 in0.0 mm 0.00 in0.0 mm 0.00 in0.0 mm
05:30 PM 49.1°F9.5°C 31.2°F-0.4°C 50% 1.0 mph WNW1.6 kmh WNW 10.0 mph16.1 kmh 30.07 in1018.3 mb 0.00 in0.0 mm 0.00 in0.0 mm 0.00 in0.0 mm
05:40 PM 48.7°F9.3°C 31.4°F-0.3°C 51% 2.0 mph NW3.2 kmh NW 10.0 mph16.1 kmh 30.07 in1018.3 mb 0.00 in0.0 mm 0.00 in0.0 mm 0.00 in0.0 mm
05:50 PM 48.1°F8.9°C 31.3°F-0.4°C 52% 1.0 mph NW1.6 kmh NW 5.0 mph8.0 kmh 30.08 in1018.6 mb 0.00 in0.0 mm 0.00 in0.0 mm 0.00 in0.0 mm
06:00 PM 47.7°F8.7°C 31.4°F-0.3°C 53% 1.0 mph W1.6 kmh W 3.0 mph4.8 kmh 30.08 in1018.6 mb 0.00 in0.0 mm 0.00 in0.0 mm 0.00 in0.0 mm
06:10 PM 47.5°F8.6°C 31.7°F-0.2°C 54% 1.0 mph WNW1.6 kmh WNW 5.0 mph8.0 kmh 30.09 in1019.0 mb 0.00 in0.0 mm 0.00 in0.0 mm 0.00 in0.0 mm
06:20 PM 46.6°F8.1°C 31.3°F-0.4°C 55% Calm Calm 2.0 mph3.2 kmh 30.10 in1019.3 mb 0.00 in0.0 mm 0.00 in0.0 mm 0.00 in0.0 mm
06:30 PM 46.1°F7.8°C 31.3°F-0.4°C 56% Calm Calm 5.0 mph8.0 kmh 30.10 in1019.3 mb 0.00 in0.0 mm 0.00 in0.0 mm 0.00 in0.0 mm
06:40 PM 45.8°F7.7°C 31.4°F-0.3°C 57% 1.0 mph W1.6 kmh W 2.0 mph3.2 kmh 30.11 in1019.6 mb 0.00 in0.0 mm 0.00 in0.0 mm 0.00 in0.0 mm
06:50 PM 45.4°F7.4°C 31.5°F-0.3°C 58% Calm Calm 4.0 mph6.4 kmh 30.11 in1019.6 mb 0.00 in0.0 mm 0.00 in0.0 mm 0.00 in0.0 mm
07:00 PM 45.2°F7.3°C 31.3°F-0.4°C 58% 1.0 mph WNW1.6 kmh WNW 4.0 mph6.4 kmh 30.12 in1020.0 mb 0.00 in0.0 mm 0.00 in0.0 mm 0.00 in0.0 mm
07:10 PM 44.7°F7.1°C 30.8°F-0.7°C 58% 1.0 mph W1.6 kmh W 3.0 mph4.8 kmh 30.12 in1020.0 mb 0.00 in0.0 mm 0.00 in0.0 mm 0.00 in0.0 mm
07:20 PM 44.4°F6.9°C 31.0°F-0.6°C 59% Calm Calm 3.0 mph4.8 kmh 30.13 in1020.3 mb 0.00 in0.0 mm 0.00 in0.0 mm 0.00 in0.0 mm
07:30 PM 43.9°F6.6°C 30.5°F-0.8°C 59% Calm Calm 3.0 mph4.8 kmh 30.13 in1020.3 mb 0.00 in0.0 mm 0.00 in0.0 mm 0.00 in0.0 mm
07:40 PM 43.8°F6.6°C 30.4°F-0.9°C 59% 1.0 mph NW1.6 kmh NW 7.0 mph11.3 kmh 30.14 in1020.7 mb 0.00 in0.0 mm 0.00 in0.0 mm 0.00 in0.0 mm
07:50 PM 43.3°F6.3°C 29.9°F-1.2°C 59% Calm Calm 2.0 mph3.2 kmh 30.14 in1020.7 mb 0.00 in0.0 mm 0.00 in0.0 mm 0.00 in0.0 mm
08:00 PM 43.1°F6.2°C 29.7°F-1.3°C 59% Calm Calm 5.0 mph8.0 kmh 30.14 in1020.7 mb 0.00 in0.0 mm 0.00 in0.0 mm 0.00 in0.0 mm
08:10 PM 42.6°F5.9°C 29.7°F-1.3°C 60% 1.0 mph W1.6 kmh W 3.0 mph4.8 kmh 30.15 in1021.0 mb 0.00 in0.0 mm 0.00 in0.0 mm 0.00 in0.0 mm
08:20 PM 42.4°F5.8°C 29.9°F-1.2°C 61% Calm Calm 2.0 mph3.2 kmh 30.15 in1021.0 mb 0.00 in0.0 mm 0.00 in0.0 mm 0.00 in0.0 mm
08:30 PM 41.4°F5.2°C 29.3°F-1.5°C 62% Calm Calm 1.0 mph1.6 kmh 30.16 in1021.3 mb 0.00 in0.0 mm 0.00 in0.0 mm 0.00 in0.0 mm
08:40 PM 40.9°F4.9°C 29.7°F-1.3°C 64% Calm Calm 1.0 mph1.6 kmh 30.16 in1021.3 mb 0.00 in0.0 mm 0.00 in0.0 mm 0.00 in0.0 mm
08:50 PM 40.2°F4.6°C 29.4°F-1.4°C 65% Calm Calm 1.0 mph1.6 kmh 30.17 in1021.7 mb 0.00 in0.0 mm 0.00 in0.0 mm 0.00 in0.0 mm
09:00 PM 39.5°F4.2°C 29.1°F-1.6°C 66% Calm Calm 1.0 mph1.6 kmh 30.17 in1021.7 mb 0.00 in0.0 mm 0.00 in0.0 mm 0.00 in0.0 mm
09:10 PM 38.8°F3.8°C 29.1°F-1.6°C 68% Calm Calm 3.0 mph4.8 kmh 30.17 in1021.7 mb 0.00 in0.0 mm 0.00 in0.0 mm 0.00 in0.0 mm
09:20 PM 38.9°F3.8°C 29.2°F-1.6°C 68% Calm Calm 1.0 mph1.6 kmh 30.18 in1022.0 mb 0.00 in0.0 mm 0.00 in0.0 mm 0.00 in0.0 mm
09:30 PM 39.0°F3.9°C 29.0°F-1.7°C 67% Calm Calm 1.0 mph1.6 kmh 30.18 in1022.0 mb 0.00 in0.0 mm 0.00 in0.0 mm 0.00 in0.0 mm
09:40 PM 38.9°F3.8°C 29.2°F-1.6°C 68% Calm Calm 1.0 mph1.6 kmh 30.19 in1022.4 mb 0.00 in0.0 mm 0.00 in0.0 mm 0.00 in0.0 mm
09:50 PM 38.8°F3.8°C 29.1°F-1.6°C 68% Calm Calm 2.0 mph3.2 kmh 30.19 in1022.4 mb 0.00 in0.0 mm 0.00 in0.0 mm 0.00 in0.0 mm
10:00 PM 38.5°F3.6°C 29.2°F-1.6°C 69% Calm Calm 1.0 mph1.6 kmh 30.19 in1022.4 mb 0.00 in0.0 mm 0.00 in0.0 mm 0.00 in0.0 mm
10:10 PM 38.2°F3.4°C 29.3°F-1.5°C 70% Calm Calm 1.0 mph1.6 kmh 30.19 in1022.4 mb 0.00 in0.0 mm 0.00 in0.0 mm 0.00 in0.0 mm
10:20 PM 37.9°F3.3°C 29.0°F-1.7°C 70% Calm Calm 1.0 mph1.6 kmh 30.19 in1022.4 mb 0.00 in0.0 mm 0.00 in0.0 mm 0.00 in0.0 mm
10:30 PM 37.9°F3.3°C 29.0°F-1.7°C 70% Calm Calm 1.0 mph1.6 kmh 30.20 in1022.7 mb 0.00 in0.0 mm 0.00 in0.0 mm 0.00 in0.0 mm
10:40 PM 37.4°F3.0°C 28.9°F-1.7°C 71% Calm Calm -- 30.20 in1022.7 mb 0.01 in0.3 mm 0.06 in1.5 mm 0.01 in0.3 mm
10:50 PM 37.1°F2.8°C 28.6°F-1.9°C 71% Calm Calm 3.0 mph4.8 kmh 30.20 in1022.7 mb 0.01 in0.3 mm 0.00 in0.0 mm 0.01 in0.3 mm
11:00 PM 36.8°F2.7°C 28.6°F-1.9°C 72% Calm Calm 3.0 mph4.8 kmh 30.20 in1022.7 mb 0.01 in0.3 mm 0.00 in0.0 mm 0.01 in0.3 mm
11:10 PM 36.5°F2.5°C 28.3°F-2.1°C 72% Calm Calm 1.0 mph1.6 kmh 30.20 in1022.7 mb 0.01 in0.3 mm 0.00 in0.0 mm 0.01 in0.3 mm
11:20 PM 36.1°F2.3°C 28.3°F-2.1°C 73% Calm Calm 1.0 mph1.6 kmh 30.20 in1022.7 mb 0.01 in0.3 mm 0.00 in0.0 mm 0.01 in0.3 mm
11:30 PM 35.6°F2.0°C 28.1°F-2.2°C 74% Calm Calm -- 30.20 in1022.7 mb 0.01 in0.3 mm 0.00 in0.0 mm 0.01 in0.3 mm
11:40 PM 34.5°F1.4°C 27.7°F-2.4°C 76% Calm Calm -- 30.20 in1022.7 mb 0.00 in0.0 mm 0.00 in0.0 mm 0.01 in0.3 mm
11:50 PM 33.7°F0.9°C 27.9°F-2.3°C 79% Calm Calm -- 30.21 in1023.0 mb 0.00 in0.0 mm 0.00 in0.0 mm 0.01 in0.3 mm